createdAt,value
2022-11-16T00:01:43.771Z,75.20
2022-11-16T00:06:52.688Z,75.04
2022-11-16T00:12:03.231Z,75.06
2022-11-16T00:17:11.752Z,75.03
2022-11-16T00:22:19.895Z,75.04
2022-11-16T00:27:28.519Z,75.07
2022-11-16T00:32:37.251Z,75.09
2022-11-16T00:37:45.787Z,75.03
2022-11-16T00:42:55.717Z,74.98
2022-11-16T00:48:03.857Z,75.07
2022-11-16T00:53:16.254Z,75.07
2022-11-16T00:58:25.005Z,75.03
2022-11-16T01:03:40.982Z,74.80
2022-11-16T01:08:49.729Z,74.72
2022-11-16T01:13:58.600Z,74.50
2022-11-16T01:19:08.138Z,74.22
2022-11-16T01:24:16.390Z,73.85
2022-11-16T01:29:25.166Z,73.61
2022-11-16T01:34:38.323Z,73.38
2022-11-16T01:39:57.670Z,73.43
2022-11-16T01:45:20.734Z,73.39
2022-11-16T01:50:31.245Z,73.18
2022-11-16T01:55:42.433Z,73.12
2022-11-16T02:01:03.853Z,73.04
2022-11-16T02:06:59.966Z,72.98
2022-11-16T02:12:39.586Z,72.78
2022-11-16T02:17:57.061Z,72.81
2022-11-16T02:23:35.867Z,72.66
2022-11-16T02:28:52.598Z,72.26
2022-11-16T02:34:01.948Z,72.36
2022-11-16T02:39:14.166Z,72.34
2022-11-16T02:44:27.680Z,72.29
2022-11-16T02:49:42.746Z,72.32
2022-11-16T02:54:50.090Z,72.22
2022-11-16T03:00:00.875Z,71.97
2022-11-16T03:05:11.596Z,71.81
2022-11-16T03:10:38.341Z,71.34
2022-11-16T03:15:49.068Z,71.50
2022-11-16T03:21:08.784Z,71.78
2022-11-16T03:26:23.119Z,71.79
2022-11-16T03:31:36.759Z,71.76
2022-11-16T03:36:48.456Z,71.87
2022-11-16T03:41:59.088Z,71.82
2022-11-16T03:47:07.925Z,71.93
2022-11-16T03:52:18.050Z,71.86
2022-11-16T03:57:28.355Z,71.95
2022-11-16T04:02:39.185Z,72.01
2022-11-16T04:08:07.202Z,72.05
2022-11-16T04:13:35.400Z,72.03
2022-11-16T04:19:01.555Z,72.12
2022-11-16T04:24:15.379Z,72.09
2022-11-16T04:29:24.173Z,72.30
2022-11-16T04:34:51.614Z,72.32
2022-11-16T04:40:00.227Z,72.35
2022-11-16T04:45:40.318Z,72.31
2022-11-16T04:50:49.913Z,72.28
2022-11-16T04:56:01.020Z,72.26
2022-11-16T05:01:09.798Z,72.31
2022-11-16T05:06:18.495Z,72.31
2022-11-16T05:11:27.186Z,72.34
2022-11-16T05:16:35.870Z,72.24
2022-11-16T05:21:45.113Z,72.07
2022-11-16T05:26:53.879Z,72.07
2022-11-16T05:32:03.751Z,72.18
2022-11-16T05:37:13.465Z,72.16
2022-11-16T05:42:22.681Z,72.23
2022-11-16T05:47:31.423Z,72.10
2022-11-16T05:52:41.090Z,72.30
2022-11-16T05:57:52.047Z,72.22
2022-11-16T06:03:01.326Z,72.49
2022-11-16T06:08:12.166Z,72.37
2022-11-16T06:13:21.402Z,72.37
2022-11-16T06:18:32.469Z,72.35
2022-11-16T06:23:41.306Z,72.27
2022-11-16T06:28:49.911Z,72.30
2022-11-16T06:33:59.817Z,72.14
2022-11-16T06:39:09.107Z,72.06
2022-11-16T06:44:18.143Z,72.06
2022-11-16T06:49:34.463Z,72.21
2022-11-16T06:54:47.681Z,72.02
2022-11-16T06:59:57.567Z,71.96
2022-11-16T07:05:06.230Z,71.93
2022-11-16T07:10:15.669Z,71.73
2022-11-16T07:15:24.674Z,71.88
2022-11-16T07:20:33.679Z,71.94
2022-11-16T07:25:47.267Z,71.77
2022-11-16T07:31:05.138Z,71.68
2022-11-16T07:36:17.269Z,71.71
2022-11-16T07:41:25.958Z,71.73
2022-11-16T07:46:49.287Z,71.43
2022-11-16T07:51:58.010Z,71.38
2022-11-16T07:57:26.807Z,71.47
2022-11-16T08:02:36.672Z,71.26
2022-11-16T08:07:45.848Z,71.36
2022-11-16T08:12:55.243Z,71.56
2022-11-16T08:18:05.464Z,71.48
2022-11-16T08:23:14.403Z,71.55
2022-11-16T08:28:23.762Z,71.61
2022-11-16T08:33:32.997Z,71.89
2022-11-16T08:38:42.100Z,71.75
2022-11-16T08:43:51.036Z,71.81
2022-11-16T08:49:01.261Z,71.53
2022-11-16T08:54:10.125Z,71.70
2022-11-16T08:59:20.099Z,71.69
2022-11-16T09:04:36.681Z,71.63
2022-11-16T09:09:44.462Z,71.56
2022-11-16T09:14:51.894Z,71.50
2022-11-16T09:19:59.616Z,71.50
2022-11-16T09:25:08.174Z,71.18
2022-11-16T09:30:18.019Z,70.98
2022-11-16T09:35:25.456Z,70.70
2022-11-16T09:40:36.924Z,70.53
2022-11-16T09:45:52.635Z,70.25
2022-11-16T09:51:02.218Z,69.93
2022-11-16T09:56:16.446Z,69.67
2022-11-16T10:01:31.778Z,69.64
2022-11-16T10:06:53.149Z,69.61
2022-11-16T10:12:17.414Z,69.64
2022-11-16T10:17:35.641Z,69.58
2022-11-16T10:22:54.110Z,69.49
2022-11-16T10:28:36.754Z,69.34
2022-11-16T10:33:43.057Z,69.26
2022-11-16T10:38:50.636Z,68.98
2022-11-16T10:44:00.942Z,69.09
2022-11-16T10:49:15.304Z,69.33
2022-11-16T10:54:22.763Z,69.27
2022-11-16T10:59:43.108Z,69.54
2022-11-16T11:05:17.904Z,69.29
2022-11-16T11:10:33.848Z,69.27
2022-11-16T11:15:42.884Z,69.26
2022-11-16T11:20:55.616Z,69.22
2022-11-16T11:26:07.650Z,69.08
2022-11-16T11:31:27.046Z,69.23
2022-11-16T11:36:41.813Z,68.63
2022-11-16T11:42:05.577Z,68.62
2022-11-16T11:53:06.014Z,68.70
2022-11-16T11:58:18.359Z,68.68
2022-11-16T12:03:47.174Z,68.52
2022-11-16T12:09:16.873Z,68.32
2022-11-16T12:14:42.826Z,67.86
2022-11-16T12:20:10.303Z,67.94
2022-11-16T12:25:28.275Z,67.56
2022-11-16T12:30:42.147Z,67.55
2022-11-16T12:36:10.392Z,67.58
2022-11-16T12:41:54.830Z,67.57
2022-11-16T12:47:10.878Z,67.47
2022-11-16T12:52:36.713Z,67.40
2022-11-16T12:57:53.905Z,67.63
2022-11-16T13:03:21.505Z,67.39
2022-11-16T13:08:40.178Z,67.26
2022-11-16T13:13:53.693Z,67.10
2022-11-16T13:19:03.722Z,66.95
2022-11-16T13:24:35.236Z,66.78
2022-11-16T13:29:52.241Z,66.70
2022-11-16T13:35:01.748Z,66.98
2022-11-16T13:40:31.072Z,67.16
2022-11-16T13:45:42.551Z,67.03
2022-11-16T13:50:55.302Z,67.01
2022-11-16T13:56:04.795Z,66.94
2022-11-16T14:01:16.067Z,67.02
2022-11-16T14:06:53.914Z,66.96
2022-11-16T14:12:21.542Z,66.90
2022-11-16T14:17:55.888Z,66.83
2022-11-16T14:23:18.599Z,66.73
2022-11-16T14:28:50.922Z,66.79
2022-11-16T14:34:01.361Z,66.62
2022-11-16T14:39:32.388Z,66.81
2022-11-16T14:44:42.519Z,66.67
2022-11-16T14:49:50.990Z,66.67
2022-11-16T14:55:01.111Z,66.95
2022-11-16T15:00:25.245Z,66.90
2022-11-16T15:05:35.782Z,66.85
2022-11-16T15:10:52.393Z,66.86
2022-11-16T15:16:22.183Z,66.81
2022-11-16T15:21:29.825Z,66.88
2022-11-16T15:26:40.401Z,66.89
2022-11-16T15:31:48.714Z,66.87
2022-11-16T15:36:56.347Z,66.97
2022-11-16T15:42:04.543Z,66.95
2022-11-16T15:47:15.832Z,66.85
2022-11-16T15:52:47.199Z,66.97
2022-11-16T15:58:15.006Z,66.82
2022-11-16T16:03:26.361Z,66.77
2022-11-16T16:08:38.545Z,66.83
2022-11-16T16:13:58.319Z,66.66
2022-11-16T16:19:10.402Z,66.50
2022-11-16T16:24:42.350Z,66.43
2022-11-16T16:29:51.574Z,66.31
2022-11-16T16:35:00.362Z,66.21
2022-11-16T16:40:09.858Z,66.04
2022-11-16T16:45:20.608Z,66.18
2022-11-16T16:50:28.353Z,66.03
2022-11-16T16:55:37.804Z,66.08
2022-11-16T17:00:46.106Z,65.99
2022-11-16T17:05:54.745Z,66.00
2022-11-16T17:11:02.258Z,65.93
2022-11-16T17:16:11.578Z,65.85
2022-11-16T17:21:19.061Z,66.03
2022-11-16T17:26:29.731Z,66.07
2022-11-16T17:31:41.805Z,65.98
2022-11-16T17:36:49.425Z,65.92
2022-11-16T17:41:56.873Z,66.05
2022-11-16T17:47:04.363Z,66.06
2022-11-16T17:52:11.718Z,66.10
2022-11-16T17:57:19.405Z,66.25
2022-11-16T18:02:26.787Z,65.98
2022-11-16T18:07:36.628Z,65.91
2022-11-16T18:12:44.348Z,65.76
2022-11-16T18:17:52.005Z,65.65
2022-11-16T18:23:00.093Z,65.55
2022-11-16T18:28:08.118Z,65.48
2022-11-16T18:33:16.832Z,65.52
2022-11-16T18:38:24.391Z,65.57
2022-11-16T18:43:32.245Z,65.41
2022-11-16T18:48:41.116Z,65.10
2022-11-16T18:53:48.879Z,65.21
2022-11-16T18:58:56.329Z,65.19
2022-11-16T19:04:04.219Z,65.04
2022-11-16T19:09:11.956Z,65.10
2022-11-16T19:14:19.399Z,65.09
2022-11-16T19:19:28.180Z,65.03
2022-11-16T19:24:35.550Z,64.96
2022-11-16T19:29:43.076Z,64.98
2022-11-16T19:34:50.996Z,64.92
2022-11-16T19:39:58.634Z,64.83
2022-11-16T19:45:06.565Z,65.00
2022-11-16T19:50:15.132Z,64.79
2022-11-16T19:55:22.676Z,64.69
2022-11-16T20:00:30.215Z,64.70
2022-11-16T20:05:37.559Z,64.69
2022-11-16T20:10:45.195Z,64.47
2022-11-16T20:15:52.655Z,64.59
2022-11-16T20:21:05.695Z,64.37
2022-11-16T20:26:14.991Z,64.43
2022-11-16T20:31:23.790Z,64.27
2022-11-16T20:36:33.441Z,64.28
2022-11-16T20:41:41.313Z,64.33
2022-11-16T20:46:49.396Z,64.05
2022-11-16T20:51:57.232Z,64.08
2022-11-16T20:57:05.134Z,63.90
2022-11-16T21:02:13.240Z,63.81
2022-11-16T21:07:21.115Z,64.01
2022-11-16T21:12:46.492Z,63.86
2022-11-16T21:17:54.193Z,63.71
2022-11-16T21:23:01.826Z,63.57
2022-11-16T21:28:09.507Z,63.54
2022-11-16T21:33:16.977Z,63.55
2022-11-16T21:38:25.985Z,63.50
2022-11-16T21:43:36.830Z,63.67
2022-11-16T21:48:45.394Z,63.48
2022-11-16T21:53:52.958Z,63.40
2022-11-16T21:59:00.500Z,63.27
2022-11-16T22:04:25.871Z,63.46
2022-11-16T22:09:33.405Z,63.11
2022-11-16T22:14:40.953Z,63.26
2022-11-16T22:19:48.779Z,63.33
2022-11-16T22:24:56.179Z,63.07
2022-11-16T22:30:03.982Z,63.19
2022-11-16T22:35:12.427Z,63.19
2022-11-16T22:40:20.336Z,63.03
2022-11-16T22:45:28.007Z,62.74
2022-11-16T22:50:35.343Z,62.78
2022-11-16T22:55:42.688Z,62.89
2022-11-16T23:00:50.449Z,62.91
2022-11-16T23:05:57.908Z,62.98
2022-11-16T23:11:25.304Z,63.10
2022-11-16T23:16:33.380Z,63.10
2022-11-16T23:21:58.246Z,63.20
2022-11-16T23:27:23.770Z,63.00
2022-11-16T23:32:31.797Z,62.84
2022-11-16T23:37:53.857Z,62.87
2022-11-16T23:43:18.959Z,62.48
2022-11-16T23:48:26.418Z,62.35
2022-11-16T23:53:34.078Z,62.39
2022-11-16T23:58:42.139Z,62.26
